Gates of the Arctic National Park, AK

4:30 PM AKDT on August 20, 2014 (GMT -0800)
Anaktuvuk Pass | Change Station
CLOSE
Current Station
Airport
Location: Anaktuvuk Pass,
Elevation: 2103 ft
Nearby Weather Stations

Elev 2103 ft 68.13 °N, 151.74 °W | Updated 14 minutes ago

Partly Cloudy
Partly Cloudy
61 °F
Feels Like 61 °F
N
9
Wind Variable Wind from ENE

Today
High -- | Low -- °F
--% Chance of Precip.
Yesterday
High -- | Low -- °F
Precip. -- in
5:48 AM 10:20 PM
Waning Crescent, 18% visible
Pressure 29.99 in
Visibility 9.0 miles
Clouds Few 7500 ft
Dew Point 41 °F
Humidity 48%
Rainfall 0.00 in
Snow Depth 0 in
UV 3 out of 12
Pollen Not available.
Air Quality Not available.
Flu Activity Not available.
METAR PAKP 210016Z AUTO 06008KT 9SM FEW075 16/05 A2999 RMK AO1

More Conditions Fewer Conditions

Pressure 29.99 in
Visibility 9.0 miles
Clouds Few 7500 ft
Dew Point 41 °F
Humidity 48%
Rainfall 0.00 in
Snow Depth 0 in
UV 3 out of 12
Pollen Not available.
Air Quality Not available.
Flu Activity Not available.
METAR PAKP 210016Z AUTO 06008KT 9SM FEW075 16/05 A2999 RMK AO1

More Conditions Fewer Conditions

10-Day Weather Forecast

Almanac

Astronomy

Aug. 20, 2014 Rise Set
Actual Time 5:48 AM AKDT 10:20 PM AKDT
Civil Twilight 4:32 AM AKDT 11:35 PM AKDT
Nautical Twilight 2:38 AM AKDT 1:33 AM AKDT
Astronomical Twilight Sun does not rise Sun does not rise
Moon 12:32 AM AKDT (8/20) 8:10 PM AKDT (8/20)
Length of Visible Light 19h 03m
Length of Day
16h 31m
Tomorrow will be 8m 3s shorter.
Waning Crescent, 18% of the Moon is Illuminated
Today
Waning Crescent
Aug 25
New
Sep 2
First Quarter
Sep 8
Full
Sep 15
Last Quarter

Today's Extremes

State Highs State Lows

Community

WunderPhotos

Upload Photos

1,745,807 photos uploaded!

WunderBlogs® & News

Nearby

Snow Depth

Station Depth Elevation
Coldfoot 0 in 1040 ft
Atigun Pass 0 in 4800 ft
Fort Yukon 2 in 430 ft
Little Chena Ridge 1 in 2000 ft
Eagle Summit 0 in 3650 ft

Earthquake Activity

City Distance Mag. Time & Date
No recent earthquake activity has been reported nearby.
Minimum magnitude displayed is 2.5.

Coastal Water Temperatures

Place Temperature
No Stations Reporting

Nearby Weather Stations